sensor_id;sensor_type;location;lat;lon;timestamp;pressure;altitude;pressure_sealevel;temperature;humidity
76478;BME280;65309;49.790;18.972;2022-11-25T00:01:37;96808.88;;;2.30;87.13
76478;BME280;65309;49.790;18.972;2022-11-25T00:06:39;96810.09;;;2.29;87.08
76478;BME280;65309;49.790;18.972;2022-11-25T00:11:42;96812.47;;;2.27;87.39
76478;BME280;65309;49.790;18.972;2022-11-25T00:16:44;96813.25;;;2.44;86.14
76478;BME280;65309;49.790;18.972;2022-11-25T00:21:49;96817.25;;;2.40;87.09
76478;BME280;65309;49.790;18.972;2022-11-25T00:26:52;96825.03;;;2.41;86.56
76478;BME280;65309;49.790;18.972;2022-11-25T00:31:54;96820.88;;;2.53;85.29
76478;BME280;65309;49.790;18.972;2022-11-25T00:36:56;96826.84;;;2.64;85.00
76478;BME280;65309;49.790;18.972;2022-11-25T00:41:59;96826.72;;;2.35;86.51
76478;BME280;65309;49.790;18.972;2022-11-25T00:47:21;96828.69;;;2.51;86.05
76478;BME280;65309;49.790;18.972;2022-11-25T00:52:24;96834.84;;;2.55;85.80
76478;BME280;65309;49.790;18.972;2022-11-25T00:57:27;96843.38;;;2.57;86.09
76478;BME280;65309;49.790;18.972;2022-11-25T01:02:29;96844.34;;;2.50;86.18
76478;BME280;65309;49.790;18.972;2022-11-25T01:07:31;96838.28;;;2.75;86.26
76478;BME280;65309;49.790;18.972;2022-11-25T01:12:35;96840.66;;;2.73;86.85
76478;BME280;65309;49.790;18.972;2022-11-25T01:17:37;96844.75;;;2.65;86.48
76478;BME280;65309;49.790;18.972;2022-11-25T01:22:38;96833.59;;;2.75;86.51
76478;BME280;65309;49.790;18.972;2022-11-25T01:27:42;96836.16;;;2.83;85.90
76478;BME280;65309;49.790;18.972;2022-11-25T01:32:44;96822.75;;;2.88;85.96
76478;BME280;65309;49.790;18.972;2022-11-25T01:37:45;96836.75;;;2.90;85.19
76478;BME280;65309;49.790;18.972;2022-11-25T01:42:49;96836.41;;;2.88;85.14
76478;BME280;65309;49.790;18.972;2022-11-25T01:47:53;96841.34;;;2.77;85.87
76478;BME280;65309;49.790;18.972;2022-11-25T01:52:57;96838.97;;;2.79;85.62
76478;BME280;65309;49.790;18.972;2022-11-25T01:58:05;96833.69;;;3.04;84.20
76478;BME280;65309;49.790;18.972;2022-11-25T02:03:08;96833.69;;;3.04;84.27
76478;BME280;65309;49.790;18.972;2022-11-25T02:08:11;96840.34;;;3.03;84.87
76478;BME280;65309;49.790;18.972;2022-11-25T02:13:15;96841.84;;;2.88;86.15
76478;BME280;65309;49.790;18.972;2022-11-25T02:18:17;96837.78;;;2.96;86.06
76478;BME280;65309;49.790;18.972;2022-11-25T02:23:25;96844.44;;;3.11;85.00
76478;BME280;65309;49.790;18.972;2022-11-25T02:28:33;96844.75;;;2.97;86.21
76478;BME280;65309;49.790;18.972;2022-11-25T02:33:35;96850.22;;;2.97;85.74
76478;BME280;65309;49.790;18.972;2022-11-25T02:38:40;96842.03;;;2.97;86.03
76478;BME280;65309;49.790;18.972;2022-11-25T02:43:44;96845.63;;;3.10;85.18
76478;BME280;65309;49.790;18.972;2022-11-25T02:48:46;96848.69;;;3.29;84.50
76478;BME280;65309;49.790;18.972;2022-11-25T02:54:09;96848.78;;;3.25;84.64
76478;BME280;65309;49.790;18.972;2022-11-25T02:59:13;96852.44;;;3.18;85.48
76478;BME280;65309;49.790;18.972;2022-11-25T03:04:14;96854.66;;;3.23;85.07
76478;BME280;65309;49.790;18.972;2022-11-25T03:09:16;96856.53;;;3.27;85.10
76478;BME280;65309;49.790;18.972;2022-11-25T03:14:20;96854.41;;;2.86;87.37
76478;BME280;65309;49.790;18.972;2022-11-25T03:19:22;96863.66;;;2.92;86.57
76478;BME280;65309;49.790;18.972;2022-11-25T03:24:24;96853.63;;;3.17;86.24
76478;BME280;65309;49.790;18.972;2022-11-25T03:29:27;96857.19;;;3.31;85.12
76478;BME280;65309;49.790;18.972;2022-11-25T03:34:29;96855.16;;;3.35;84.76
76478;BME280;65309;49.790;18.972;2022-11-25T03:39:31;96861.31;;;3.22;85.86
76478;BME280;65309;49.790;18.972;2022-11-25T03:44:34;96863.03;;;3.33;85.18
76478;BME280;65309;49.790;18.972;2022-11-25T03:49:37;96866.97;;;3.15;86.65
76478;BME280;65309;49.790;18.972;2022-11-25T03:54:39;96871.94;;;3.04;87.02
76478;BME280;65309;49.790;18.972;2022-11-25T03:59:42;96867.31;;;3.34;85.43
76478;BME280;65309;49.790;18.972;2022-11-25T04:04:44;96878.13;;;3.37;85.18
76478;BME280;65309;49.790;18.972;2022-11-25T04:09:46;96875.63;;;3.43;85.32
76478;BME280;65309;49.790;18.972;2022-11-25T04:14:49;96874.78;;;3.46;85.01
76478;BME280;65309;49.790;18.972;2022-11-25T04:19:51;96876.16;;;3.54;83.61
76478;BME280;65309;49.790;18.972;2022-11-25T04:24:53;96880.00;;;3.40;84.63
76478;BME280;65309;49.790;18.972;2022-11-25T04:29:56;96874.34;;;3.47;84.95
76478;BME280;65309;49.790;18.972;2022-11-25T04:34:58;96880.06;;;3.53;84.16
76478;BME280;65309;49.790;18.972;2022-11-25T04:40:00;96880.59;;;3.48;83.97
76478;BME280;65309;49.790;18.972;2022-11-25T04:45:05;96888.09;;;3.60;82.80
76478;BME280;65309;49.790;18.972;2022-11-25T04:50:24;96890.81;;;3.60;83.69
76478;BME280;65309;49.790;18.972;2022-11-25T04:55:26;96897.00;;;3.48;83.78
76478;BME280;65309;49.790;18.972;2022-11-25T05:00:29;96895.44;;;3.63;83.42
76478;BME280;65309;49.790;18.972;2022-11-25T05:05:31;96907.75;;;3.55;84.23
76478;BME280;65309;49.790;18.972;2022-11-25T05:10:33;96910.09;;;3.08;86.10
76478;BME280;65309;49.790;18.972;2022-11-25T05:15:36;96914.97;;;3.16;85.82
76478;BME280;65309;49.790;18.972;2022-11-25T05:20:38;96916.22;;;3.44;83.95
76478;BME280;65309;49.790;18.972;2022-11-25T05:25:40;96921.78;;;3.41;84.45
76478;BME280;65309;49.790;18.972;2022-11-25T05:30:44;96933.59;;;3.38;83.66
76478;BME280;65309;49.790;18.972;2022-11-25T05:35:52;96930.66;;;3.45;83.66
76478;BME280;65309;49.790;18.972;2022-11-25T05:40:59;96928.84;;;3.38;85.28
76478;BME280;65309;49.790;18.972;2022-11-25T05:46:05;96932.91;;;3.34;84.98
76478;BME280;65309;49.790;18.972;2022-11-25T05:51:07;96929.31;;;3.20;86.68
76478;BME280;65309;49.790;18.972;2022-11-25T05:56:10;96933.81;;;3.43;85.00
76478;BME280;65309;49.790;18.972;2022-11-25T06:01:14;96935.63;;;3.50;83.46
76478;BME280;65309;49.790;18.972;2022-11-25T06:06:17;96939.72;;;3.42;84.42
76478;BME280;65309;49.790;18.972;2022-11-25T06:11:19;96947.75;;;3.33;84.08
76478;BME280;65309;49.790;18.972;2022-11-25T06:16:23;96936.28;;;3.21;85.65
76478;BME280;65309;49.790;18.972;2022-11-25T06:21:25;96946.63;;;3.14;84.68
76478;BME280;65309;49.790;18.972;2022-11-25T06:26:27;96954.13;;;3.10;85.56
76478;BME280;65309;49.790;18.972;2022-11-25T06:31:31;96952.00;;;3.17;85.73
76478;BME280;65309;49.790;18.972;2022-11-25T06:36:33;96962.91;;;3.01;86.59
76478;BME280;65309;49.790;18.972;2022-11-25T06:41:35;96957.28;;;2.92;86.39
76478;BME280;65309;49.790;18.972;2022-11-25T06:46:38;96966.81;;;2.84;87.44
76478;BME280;65309;49.790;18.972;2022-11-25T06:51:40;96970.88;;;2.76;87.52
76478;BME280;65309;49.790;18.972;2022-11-25T06:56:42;96976.44;;;3.08;87.40
76478;BME280;65309;49.790;18.972;2022-11-25T07:01:46;96975.06;;;3.00;88.48
76478;BME280;65309;49.790;18.972;2022-11-25T07:06:48;96989.13;;;2.99;88.59
76478;BME280;65309;49.790;18.972;2022-11-25T07:11:51;96987.56;;;3.34;86.21
76478;BME280;65309;49.790;18.972;2022-11-25T07:16:54;96993.91;;;3.63;85.03
76478;BME280;65309;49.790;18.972;2022-11-25T07:21:56;96989.25;;;3.60;85.46
76478;BME280;65309;49.790;18.972;2022-11-25T07:26:59;97002.50;;;3.78;84.91
76478;BME280;65309;49.790;18.972;2022-11-25T07:32:02;97002.44;;;3.65;86.61
76478;BME280;65309;49.790;18.972;2022-11-25T07:37:11;97009.78;;;3.52;87.51
76478;BME280;65309;49.790;18.972;2022-11-25T07:42:13;97014.66;;;3.60;87.58
76478;BME280;65309;49.790;18.972;2022-11-25T07:47:16;97013.34;;;3.81;86.68
76478;BME280;65309;49.790;18.972;2022-11-25T07:52:18;97013.31;;;4.13;83.61
76478;BME280;65309;49.790;18.972;2022-11-25T07:57:20;97018.56;;;4.37;82.74
76478;BME280;65309;49.790;18.972;2022-11-25T08:02:24;97031.63;;;4.74;81.13
76478;BME280;65309;49.790;18.972;2022-11-25T08:07:26;97031.16;;;4.63;80.39
76478;BME280;65309;49.790;18.972;2022-11-25T08:12:35;97036.72;;;4.31;82.72
76478;BME280;65309;49.790;18.972;2022-11-25T08:17:39;97035.72;;;4.25;84.54
76478;BME280;65309;49.790;18.972;2022-11-25T08:22:41;97036.41;;;4.12;84.82
76478;BME280;65309;49.790;18.972;2022-11-25T08:27:42;97037.78;;;4.21;85.12
76478;BME280;65309;49.790;18.972;2022-11-25T08:32:46;97041.09;;;4.57;83.50
76478;BME280;65309;49.790;18.972;2022-11-25T08:37:48;97040.81;;;4.80;79.92
76478;BME280;65309;49.790;18.972;2022-11-25T08:42:50;97035.53;;;5.15;77.24
76478;BME280;65309;49.790;18.972;2022-11-25T08:47:53;97044.13;;;5.54;75.18
76478;BME280;65309;49.790;18.972;2022-11-25T08:52:55;97041.16;;;5.49;76.24
76478;BME280;65309;49.790;18.972;2022-11-25T08:57:58;97046.75;;;5.45;76.48
76478;BME280;65309;49.790;18.972;2022-11-25T09:03:01;97054.97;;;5.83;73.62
76478;BME280;65309;49.790;18.972;2022-11-25T09:08:06;97052.13;;;5.74;73.95
76478;BME280;65309;49.790;18.972;2022-11-25T09:13:08;97055.22;;;5.51;73.87
76478;BME280;65309;49.790;18.972;2022-11-25T09:18:12;97056.84;;;5.61;73.62
76478;BME280;65309;49.790;18.972;2022-11-25T09:23:16;97057.91;;;5.64;74.40
76478;BME280;65309;49.790;18.972;2022-11-25T09:28:18;97068.81;;;5.92;72.73
76478;BME280;65309;49.790;18.972;2022-11-25T09:33:22;97046.50;;;6.03;72.06
76478;BME280;65309;49.790;18.972;2022-11-25T09:38:24;97055.53;;;5.91;73.63
76478;BME280;65309;49.790;18.972;2022-11-25T09:43:34;97062.34;;;5.86;71.63
76478;BME280;65309;49.790;18.972;2022-11-25T09:49:07;97053.69;;;5.88;73.84
76478;BME280;65309;49.790;18.972;2022-11-25T09:54:20;97055.59;;;6.13;71.20
76478;BME280;65309;49.790;18.972;2022-11-25T09:59:27;97060.59;;;6.27;72.02
76478;BME280;65309;49.790;18.972;2022-11-25T10:04:38;97050.50;;;6.58;70.54
76478;BME280;65309;49.790;18.972;2022-11-25T10:09:45;97055.59;;;6.13;73.03
76478;BME280;65309;49.790;18.972;2022-11-25T10:14:48;97057.47;;;6.16;72.08
76478;BME280;65309;49.790;18.972;2022-11-25T10:19:57;97052.88;;;6.47;71.81
76478;BME280;65309;49.790;18.972;2022-11-25T10:25:04;97049.06;;;6.88;69.76
76478;BME280;65309;49.790;18.972;2022-11-25T10:30:14;97050.31;;;6.53;70.84
76478;BME280;65309;49.790;18.972;2022-11-25T10:35:25;97058.88;;;6.98;67.97
76478;BME280;65309;49.790;18.972;2022-11-25T10:40:29;97041.09;;;6.68;68.71
76478;BME280;65309;49.790;18.972;2022-11-25T10:45:39;97052.09;;;6.68;69.59
76478;BME280;65309;49.790;18.972;2022-11-25T10:51:02;97048.78;;;6.73;69.79
76478;BME280;65309;49.790;18.972;2022-11-25T10:56:09;97053.13;;;6.62;70.89
76478;BME280;65309;49.790;18.972;2022-11-25T11:01:14;97059.00;;;6.51;70.67
76478;BME280;65309;49.790;18.972;2022-11-25T11:06:30;97061.41;;;6.49;71.37
76478;BME280;65309;49.790;18.972;2022-11-25T11:11:46;97045.97;;;6.64;70.19
76478;BME280;65309;49.790;18.972;2022-11-25T11:16:51;97059.06;;;6.60;71.73
76478;BME280;65309;49.790;18.972;2022-11-25T11:21:57;97062.97;;;6.50;70.55
76478;BME280;65309;49.790;18.972;2022-11-25T11:27:19;97046.25;;;6.79;70.31
76478;BME280;65309;49.790;18.972;2022-11-25T11:32:23;97055.91;;;6.83;69.27
76478;BME280;65309;49.790;18.972;2022-11-25T11:37:35;97057.44;;;6.84;68.66
76478;BME280;65309;49.790;18.972;2022-11-25T11:42:48;97058.22;;;6.72;67.61
76478;BME280;65309;49.790;18.972;2022-11-25T11:48:04;97058.22;;;7.16;67.83
76478;BME280;65309;49.790;18.972;2022-11-25T11:53:19;97048.16;;;6.91;69.29
76478;BME280;65309;49.790;18.972;2022-11-25T11:58:32;97058.25;;;6.94;67.93
76478;BME280;65309;49.790;18.972;2022-11-25T12:03:40;97070.97;;;7.01;69.31
76478;BME280;65309;49.790;18.972;2022-11-25T12:08:49;97082.91;;;7.28;67.86
76478;BME280;65309;49.790;18.972;2022-11-25T12:13:55;97073.03;;;6.87;69.24
76478;BME280;65309;49.790;18.972;2022-11-25T12:19:07;97078.84;;;6.89;70.10
76478;BME280;65309;49.790;18.972;2022-11-25T12:24:20;97077.44;;;7.07;68.19
76478;BME280;65309;49.790;18.972;2022-11-25T12:29:29;97078.47;;;7.31;67.77
76478;BME280;65309;49.790;18.972;2022-11-25T12:34:38;97066.69;;;7.00;67.92
76478;BME280;65309;49.790;18.972;2022-11-25T12:39:47;97075.66;;;6.91;69.15
76478;BME280;65309;49.790;18.972;2022-11-25T12:44:56;97075.13;;;7.05;68.52
76478;BME280;65309;49.790;18.972;2022-11-25T12:50:01;97086.22;;;6.58;70.44
76478;BME280;65309;49.790;18.972;2022-11-25T12:55:13;97081.63;;;6.55;72.02
76478;BME280;65309;49.790;18.972;2022-11-25T13:00:18;97084.44;;;6.64;70.58
76478;BME280;65309;49.790;18.972;2022-11-25T13:05:58;97082.66;;;6.70;70.60
76478;BME280;65309;49.790;18.972;2022-11-25T13:11:26;97086.97;;;6.37;72.09
76478;BME280;65309;49.790;18.972;2022-11-25T13:16:31;97084.50;;;6.73;70.54
76478;BME280;65309;49.790;18.972;2022-11-25T13:21:34;97092.00;;;6.73;69.71
76478;BME280;65309;49.790;18.972;2022-11-25T13:26:47;97089.28;;;6.38;70.82
76478;BME280;65309;49.790;18.972;2022-11-25T13:31:56;97094.84;;;6.35;70.90
76478;BME280;65309;49.790;18.972;2022-11-25T13:37:01;97091.72;;;6.24;71.43
76478;BME280;65309;49.790;18.972;2022-11-25T13:42:25;97100.28;;;6.60;69.64
76478;BME280;65309;49.790;18.972;2022-11-25T13:47:31;97091.94;;;6.29;71.26
76478;BME280;65309;49.790;18.972;2022-11-25T13:52:37;97092.41;;;6.50;69.84
76478;BME280;65309;49.790;18.972;2022-11-25T13:57:43;97104.00;;;6.66;69.78
76478;BME280;65309;49.790;18.972;2022-11-25T14:02:46;97106.97;;;6.72;69.93
76478;BME280;65309;49.790;18.972;2022-11-25T14:08:04;97114.53;;;6.46;71.29
76478;BME280;65309;49.790;18.972;2022-11-25T14:13:29;97119.50;;;6.26;73.33
76478;BME280;65309;49.790;18.972;2022-11-25T14:18:52;97111.81;;;6.21;73.52
76478;BME280;65309;49.790;18.972;2022-11-25T14:24:27;97113.03;;;5.69;77.16
76478;BME280;65309;49.790;18.972;2022-11-25T14:29:36;97112.81;;;5.76;76.00
76478;BME280;65309;49.790;18.972;2022-11-25T14:34:42;97120.84;;;5.83;76.69
76478;BME280;65309;49.790;18.972;2022-11-25T14:39:49;97113.56;;;5.51;79.24
76478;BME280;65309;49.790;18.972;2022-11-25T14:44:55;97113.91;;;5.66;79.16
76478;BME280;65309;49.790;18.972;2022-11-25T14:49:59;97116.84;;;5.34;80.45
76478;BME280;65309;49.790;18.972;2022-11-25T14:55:26;97112.66;;;5.29;81.42
76478;BME280;65309;49.790;18.972;2022-11-25T15:00:30;97104.94;;;5.12;82.46
76478;BME280;65309;49.790;18.972;2022-11-25T15:05:34;97098.44;;;5.05;81.49
76478;BME280;65309;49.790;18.972;2022-11-25T15:10:41;97113.34;;;5.46;79.98
76478;BME280;65309;49.790;18.972;2022-11-25T15:15:48;97120.91;;;5.29;81.43
76478;BME280;65309;49.790;18.972;2022-11-25T15:20:55;97120.22;;;5.25;81.62
76478;BME280;65309;49.790;18.972;2022-11-25T15:25:58;97124.84;;;5.41;80.46
76478;BME280;65309;49.790;18.972;2022-11-25T15:31:08;97133.50;;;4.98;83.28
76478;BME280;65309;49.790;18.972;2022-11-25T15:36:10;97139.19;;;4.91;82.87
76478;BME280;65309;49.790;18.972;2022-11-25T15:41:17;97147.25;;;4.82;82.63
76478;BME280;65309;49.790;18.972;2022-11-25T15:46:22;97156.59;;;4.84;83.99
76478;BME280;65309;49.790;18.972;2022-11-25T15:51:34;97148.59;;;4.61;84.72
76478;BME280;65309;49.790;18.972;2022-11-25T15:56:44;97151.94;;;4.52;84.87
76478;BME280;65309;49.790;18.972;2022-11-25T16:01:48;97154.75;;;4.65;83.40
76478;BME280;65309;49.790;18.972;2022-11-25T16:06:54;97157.00;;;4.54;84.55
76478;BME280;65309;49.790;18.972;2022-11-25T16:12:04;97160.25;;;4.49;84.16
76478;BME280;65309;49.790;18.972;2022-11-25T16:17:09;97149.66;;;4.35;84.99
76478;BME280;65309;49.790;18.972;2022-11-25T16:22:13;97155.13;;;4.35;83.62
76478;BME280;65309;49.790;18.972;2022-11-25T16:27:20;97156.28;;;4.66;81.58
76478;BME280;65309;49.790;18.972;2022-11-25T16:32:26;97159.91;;;4.63;80.13
76478;BME280;65309;49.790;18.972;2022-11-25T16:37:29;97162.91;;;4.52;81.00
76478;BME280;65309;49.790;18.972;2022-11-25T16:42:31;97162.91;;;4.52;80.15
76478;BME280;65309;49.790;18.972;2022-11-25T16:47:35;97169.25;;;4.49;80.70
76478;BME280;65309;49.790;18.972;2022-11-25T16:52:37;97168.47;;;4.49;82.14
76478;BME280;65309;49.790;18.972;2022-11-25T16:57:39;97159.84;;;4.50;82.74
76478;BME280;65309;49.790;18.972;2022-11-25T17:02:44;97167.63;;;4.81;78.58
76478;BME280;65309;49.790;18.972;2022-11-25T17:07:46;97173.72;;;4.88;78.36
76478;BME280;65309;49.790;18.972;2022-11-25T17:12:48;97174.19;;;4.99;77.98
76478;BME280;65309;49.790;18.972;2022-11-25T17:17:52;97176.63;;;4.81;77.36
76478;BME280;65309;49.790;18.972;2022-11-25T17:22:54;97184.50;;;4.95;77.02
76478;BME280;65309;49.790;18.972;2022-11-25T17:27:58;97191.09;;;4.82;76.79
76478;BME280;65309;49.790;18.972;2022-11-25T17:33:05;97196.34;;;4.60;79.35
76478;BME280;65309;49.790;18.972;2022-11-25T17:38:10;97199.09;;;4.60;79.91
76478;BME280;65309;49.790;18.972;2022-11-25T17:43:13;97198.59;;;4.65;79.17
76478;BME280;65309;49.790;18.972;2022-11-25T17:48:17;97206.78;;;4.81;77.67
76478;BME280;65309;49.790;18.972;2022-11-25T17:53:19;97198.03;;;4.86;77.52
76478;BME280;65309;49.790;18.972;2022-11-25T17:58:22;97196.44;;;4.73;77.87
76478;BME280;65309;49.790;18.972;2022-11-25T18:03:25;97204.56;;;4.92;77.35
76478;BME280;65309;49.790;18.972;2022-11-25T18:08:27;97207.09;;;4.99;77.48
76478;BME280;65309;49.790;18.972;2022-11-25T18:13:32;97216.44;;;4.86;76.43
76478;BME280;65309;49.790;18.972;2022-11-25T18:18:37;97213.25;;;5.03;75.92
76478;BME280;65309;49.790;18.972;2022-11-25T18:23:39;97221.72;;;5.09;75.49
76478;BME280;65309;49.790;18.972;2022-11-25T18:28:42;97219.84;;;5.35;73.87
76478;BME280;65309;49.790;18.972;2022-11-25T18:33:45;97228.88;;;5.48;72.98
76478;BME280;65309;49.790;18.972;2022-11-25T18:38:47;97238.97;;;5.38;73.67
76478;BME280;65309;49.790;18.972;2022-11-25T18:43:50;97233.38;;;5.42;73.78
76478;BME280;65309;49.790;18.972;2022-11-25T18:48:53;97228.84;;;5.35;74.82
76478;BME280;65309;49.790;18.972;2022-11-25T18:53:57;97227.44;;;5.43;72.86
76478;BME280;65309;49.790;18.972;2022-11-25T18:58:59;97226.34;;;5.41;72.09
76478;BME280;65309;49.790;18.972;2022-11-25T19:04:03;97234.00;;;5.33;72.10
76478;BME280;65309;49.790;18.972;2022-11-25T19:09:05;97236.50;;;5.28;73.61
76478;BME280;65309;49.790;18.972;2022-11-25T19:14:10;97249.16;;;5.38;72.93
76478;BME280;65309;49.790;18.972;2022-11-25T19:19:15;97246.53;;;5.47;71.88
76478;BME280;65309;49.790;18.972;2022-11-25T19:24:17;97245.91;;;5.55;70.47
76478;BME280;65309;49.790;18.972;2022-11-25T19:29:23;97255.56;;;5.60;70.65
76478;BME280;65309;49.790;18.972;2022-11-25T19:34:31;97254.16;;;5.68;70.30
76478;BME280;65309;49.790;18.972;2022-11-25T19:39:35;97255.69;;;5.56;69.90
76478;BME280;65309;49.790;18.972;2022-11-25T19:44:37;97272.63;;;5.68;70.23
76478;BME280;65309;49.790;18.972;2022-11-25T19:49:41;97267.47;;;5.70;70.33
76478;BME280;65309;49.790;18.972;2022-11-25T19:54:44;97269.56;;;5.78;69.47
76478;BME280;65309;49.790;18.972;2022-11-25T19:59:46;97279.63;;;5.69;69.80
76478;BME280;65309;49.790;18.972;2022-11-25T20:04:53;97280.94;;;5.64;69.69
76478;BME280;65309;49.790;18.972;2022-11-25T20:09:58;97290.06;;;5.61;70.43
76478;BME280;65309;49.790;18.972;2022-11-25T20:15:04;97296.00;;;5.72;69.69
76478;BME280;65309;49.790;18.972;2022-11-25T20:20:12;97295.34;;;5.68;69.46
76478;BME280;65309;49.790;18.972;2022-11-25T20:25:16;97296.50;;;5.54;71.32
76478;BME280;65309;49.790;18.972;2022-11-25T20:30:20;97294.00;;;5.60;70.64
76478;BME280;65309;49.790;18.972;2022-11-25T20:35:24;97302.78;;;5.39;71.20
76478;BME280;65309;49.790;18.972;2022-11-25T20:40:30;97296.88;;;5.40;71.67
76478;BME280;65309;49.790;18.972;2022-11-25T20:45:36;97314.50;;;5.55;70.24
76478;BME280;65309;49.790;18.972;2022-11-25T20:50:40;97315.22;;;5.72;69.00
76478;BME280;65309;49.790;18.972;2022-11-25T20:55:43;97319.41;;;5.77;68.69
76478;BME280;65309;49.790;18.972;2022-11-25T21:00:45;97324.84;;;5.64;69.44
76478;BME280;65309;49.790;18.972;2022-11-25T21:05:49;97311.47;;;5.37;70.52
76478;BME280;65309;49.790;18.972;2022-11-25T21:10:53;97313.81;;;4.90;71.13
76478;BME280;65309;49.790;18.972;2022-11-25T21:15:56;97308.66;;;4.44;73.54
76478;BME280;65309;49.790;18.972;2022-11-25T21:21:00;97304.38;;;4.07;75.27
76478;BME280;65309;49.790;18.972;2022-11-25T21:26:05;97308.59;;;3.52;76.64
76478;BME280;65309;49.790;18.972;2022-11-25T21:31:12;97301.50;;;3.35;77.51
76478;BME280;65309;49.790;18.972;2022-11-25T21:36:18;97312.63;;;3.24;78.78
76478;BME280;65309;49.790;18.972;2022-11-25T21:41:22;97311.44;;;3.02;80.25
76478;BME280;65309;49.790;18.972;2022-11-25T21:46:24;97323.34;;;2.92;80.46
76478;BME280;65309;49.790;18.972;2022-11-25T21:51:28;97323.16;;;3.03;80.46
76478;BME280;65309;49.790;18.972;2022-11-25T21:56:31;97326.34;;;2.74;80.64
76478;BME280;65309;49.790;18.972;2022-11-25T22:01:35;97326.69;;;2.76;81.37
76478;BME280;65309;49.790;18.972;2022-11-25T22:06:38;97333.91;;;2.67;81.62
76478;BME280;65309;49.790;18.972;2022-11-25T22:11:42;97335.53;;;2.61;82.08
76478;BME280;65309;49.790;18.972;2022-11-25T22:16:45;97348.41;;;2.60;81.19
76478;BME280;65309;49.790;18.972;2022-11-25T22:21:48;97354.31;;;2.59;81.50
76478;BME280;65309;49.790;18.972;2022-11-25T22:26:51;97356.75;;;2.50;80.83
76478;BME280;65309;49.790;18.972;2022-11-25T22:31:59;97366.03;;;2.29;81.43
76478;BME280;65309;49.790;18.972;2022-11-25T22:37:02;97372.19;;;2.03;82.83
76478;BME280;65309;49.790;18.972;2022-11-25T22:42:05;97384.59;;;2.07;83.13
76478;BME280;65309;49.790;18.972;2022-11-25T22:47:14;97383.19;;;2.26;83.35
76478;BME280;65309;49.790;18.972;2022-11-25T22:52:23;97381.69;;;2.21;82.40
76478;BME280;65309;49.790;18.972;2022-11-25T22:57:25;97381.09;;;2.07;83.16
76478;BME280;65309;49.790;18.972;2022-11-25T23:02:30;97397.22;;;1.94;83.50
76478;BME280;65309;49.790;18.972;2022-11-25T23:07:34;97400.97;;;2.07;84.27
76478;BME280;65309;49.790;18.972;2022-11-25T23:12:36;97400.06;;;2.17;83.87
76478;BME280;65309;49.790;18.972;2022-11-25T23:17:39;97395.72;;;2.23;84.46
76478;BME280;65309;49.790;18.972;2022-11-25T23:22:44;97398.66;;;2.36;84.17
76478;BME280;65309;49.790;18.972;2022-11-25T23:27:46;97400.41;;;2.53;84.71
76478;BME280;65309;49.790;18.972;2022-11-25T23:32:50;97396.13;;;2.79;84.50
76478;BME280;65309;49.790;18.972;2022-11-25T23:37:55;97405.34;;;2.62;83.56
76478;BME280;65309;49.790;18.972;2022-11-25T23:42:57;97411.25;;;2.57;84.53
76478;BME280;65309;49.790;18.972;2022-11-25T23:47:59;97402.50;;;2.96;84.85
76478;BME280;65309;49.790;18.972;2022-11-25T23:53:05;97405.72;;;3.14;84.28
76478;BME280;65309;49.790;18.972;2022-11-25T23:58:13;97413.63;;;3.78;82.48
